Thangoo, Australia
Current Conditions -  °F | °C
As of 7:00 PM on Wednesday 26 Nov 2014 (Local Time) from YBRM Reporting Station
Clear Clear  
Wind Chill: 90°   Ceiling: Unl
Heat Index: 102°   Visibility: 6mi
Dew Point: 77°   Wind: 10mph
Humidity: 66%   Direction: 330°NNW
Pressure: 29.68"   Gusts: NA
Location:  18.18°S, 122.35°E
Report Text: YBRM 261100Z AUTO 33009KT 9999 // NCD 32/25 Q1005
Loading
Personal Weather Stations






























Interactive Weather Map New forecast layout! Learn more

10-Day Weather Forecast

Advertisements
Track Severe Weather on mobile